createdAt,value
2023-05-19T00:02:33.882Z,9.70
2023-05-19T00:10:58.497Z,9.69
2023-05-19T00:19:22.419Z,9.69
2023-05-19T00:27:45.446Z,9.70
2023-05-19T00:36:09.028Z,9.68
2023-05-19T00:44:31.983Z,9.67
2023-05-19T00:52:56.146Z,9.62
2023-05-19T01:01:21.720Z,9.51
2023-05-19T01:09:47.174Z,9.43
2023-05-19T01:18:16.756Z,9.44
2023-05-19T01:26:58.503Z,9.44
2023-05-19T01:35:25.073Z,9.40
2023-05-19T01:43:49.688Z,9.35
2023-05-19T01:52:12.702Z,9.33
2023-05-19T02:01:12.587Z,9.34
2023-05-19T02:09:35.760Z,9.37
2023-05-19T02:18:00.314Z,9.42
2023-05-19T02:26:23.981Z,9.40
2023-05-19T02:34:46.896Z,9.37
2023-05-19T02:43:09.820Z,9.34
2023-05-19T02:51:32.842Z,9.36
2023-05-19T02:59:56.381Z,9.33
2023-05-19T03:08:19.867Z,9.33
2023-05-19T03:16:42.892Z,9.34
2023-05-19T03:25:06.114Z,9.34
2023-05-19T03:33:30.052Z,9.41
2023-05-19T03:41:53.455Z,9.44
2023-05-19T03:50:16.590Z,9.45
2023-05-19T03:58:57.990Z,9.50
2023-05-19T04:07:20.913Z,9.58
2023-05-19T04:15:44.047Z,9.65
2023-05-19T04:24:07.253Z,9.73
2023-05-19T04:32:31.120Z,9.81
2023-05-19T04:40:56.471Z,9.85
2023-05-19T04:49:21.060Z,9.92
2023-05-19T04:57:44.116Z,10.05
2023-05-19T05:06:07.886Z,10.20
2023-05-19T05:14:31.191Z,10.46
2023-05-19T05:22:54.561Z,10.48
2023-05-19T05:31:18.309Z,10.47
2023-05-19T05:39:41.512Z,10.56
2023-05-19T05:48:05.035Z,10.67
2023-05-19T05:56:28.751Z,10.87
2023-05-19T06:04:54.218Z,10.97
2023-05-19T06:13:22.362Z,11.08
2023-05-19T06:21:45.674Z,11.12
2023-05-19T06:30:09.857Z,11.14
2023-05-19T06:38:41.548Z,11.13
2023-05-19T06:47:04.794Z,11.11
2023-05-19T06:55:27.907Z,11.17
2023-05-19T07:03:52.537Z,11.22
2023-05-19T07:12:17.390Z,11.37
2023-05-19T07:20:41.127Z,11.46
2023-05-19T07:29:06.702Z,11.52
2023-05-19T07:37:29.603Z,11.72
2023-05-19T07:45:53.646Z,11.82
2023-05-19T07:54:16.843Z,11.89
2023-05-19T08:02:39.963Z,11.94
2023-05-19T08:11:04.784Z,12.06
2023-05-19T08:19:27.862Z,12.15
2023-05-19T08:27:51.103Z,12.24
2023-05-19T08:36:14.219Z,12.37
2023-05-19T08:44:38.243Z,12.60
2023-05-19T08:53:28.965Z,12.69
2023-05-19T09:01:55.715Z,12.94
2023-05-19T09:10:18.854Z,13.00
2023-05-19T09:18:55.041Z,12.93
2023-05-19T09:27:23.076Z,12.95
2023-05-19T09:35:49.219Z,13.06
2023-05-19T09:44:30.065Z,13.09
2023-05-19T09:52:53.860Z,13.17
2023-05-19T10:01:17.380Z,13.23
2023-05-19T10:09:42.914Z,13.21
2023-05-19T10:18:09.261Z,13.35
2023-05-19T10:26:33.834Z,13.35
2023-05-19T10:35:21.637Z,13.39
2023-05-19T10:44:20.031Z,13.30
2023-05-19T10:52:44.787Z,13.30
2023-05-19T11:01:15.805Z,13.61
2023-05-19T11:09:43.368Z,13.90
2023-05-19T11:18:06.502Z,13.97
2023-05-19T11:26:43.751Z,14.11
2023-05-19T11:35:21.980Z,14.11
2023-05-19T11:43:48.494Z,13.97
2023-05-19T11:52:49.049Z,13.93
2023-05-19T12:01:53.964Z,14.00
2023-05-19T12:11:18.198Z,14.00
2023-05-19T12:20:19.358Z,13.95
2023-05-19T12:39:12.612Z,14.54
2023-05-19T12:47:36.564Z,14.73
2023-05-19T12:56:00.099Z,14.62
2023-05-19T13:04:24.878Z,14.53
2023-05-19T13:12:47.952Z,14.42
2023-05-19T13:21:10.936Z,14.49
2023-05-19T13:29:33.910Z,14.52
2023-05-19T13:37:56.925Z,14.42
2023-05-19T13:46:24.370Z,14.34
2023-05-19T13:54:56.884Z,14.23
2023-05-19T14:03:20.181Z,14.17
2023-05-19T14:11:43.469Z,14.16
2023-05-19T14:20:07.497Z,14.15
2023-05-19T14:28:30.438Z,14.09
2023-05-19T14:36:53.576Z,14.07
2023-05-19T14:45:16.659Z,14.06
2023-05-19T14:53:39.637Z,14.06
2023-05-19T15:02:02.526Z,14.05
2023-05-19T15:10:25.476Z,14.12
2023-05-19T15:18:48.434Z,14.17
2023-05-19T15:27:11.817Z,14.13
2023-05-19T15:35:34.729Z,14.09
2023-05-19T15:44:00.538Z,14.10
2023-05-19T15:52:23.826Z,14.15
2023-05-19T16:00:46.821Z,14.19
2023-05-19T16:09:09.778Z,14.12
2023-05-19T16:17:32.873Z,14.08
2023-05-19T16:25:57.453Z,14.02
2023-05-19T16:34:20.447Z,14.09
2023-05-19T16:42:43.347Z,14.06
2023-05-19T16:51:06.513Z,13.92
2023-05-19T16:59:29.412Z,13.82
2023-05-19T17:07:52.410Z,13.75
2023-05-19T17:16:16.075Z,13.71
2023-05-19T17:24:39.776Z,13.72
2023-05-19T17:33:02.765Z,13.71
2023-05-19T17:41:26.461Z,13.66
2023-05-19T17:49:53.023Z,13.56
2023-05-19T17:58:16.263Z,13.47
2023-05-19T18:06:40.910Z,13.43
2023-05-19T18:15:04.138Z,13.43
2023-05-19T18:23:27.057Z,13.43
2023-05-19T18:31:49.974Z,13.38
2023-05-19T18:40:12.995Z,13.31
2023-05-19T18:48:36.193Z,13.21
2023-05-19T18:56:59.662Z,13.19
2023-05-19T19:05:22.640Z,13.20
2023-05-19T19:13:45.904Z,13.18
2023-05-19T19:22:08.872Z,13.18
2023-05-19T19:30:32.297Z,13.17
2023-05-19T19:38:55.455Z,13.22
2023-05-19T19:47:18.352Z,13.24
2023-05-19T19:55:41.397Z,13.24
2023-05-19T20:04:04.583Z,13.27
2023-05-19T20:12:27.648Z,13.23
2023-05-19T20:20:50.885Z,13.18
2023-05-19T20:29:13.805Z,13.16
2023-05-19T20:37:36.826Z,13.19
2023-05-19T20:46:01.445Z,13.18
2023-05-19T20:54:24.677Z,13.19
2023-05-19T21:02:47.702Z,13.23
2023-05-19T21:11:10.661Z,13.23
2023-05-19T21:19:36.479Z,13.18
2023-05-19T21:27:59.412Z,13.09
2023-05-19T21:36:23.374Z,13.07
2023-05-19T21:44:46.584Z,13.05
2023-05-19T21:53:09.493Z,13.01
2023-05-19T22:01:32.348Z,13.04
2023-05-19T22:09:55.591Z,13.04
2023-05-19T22:18:18.590Z,12.99
2023-05-19T22:26:44.249Z,12.95
2023-05-19T22:35:08.512Z,12.95
2023-05-19T22:43:31.524Z,12.98
2023-05-19T22:51:54.368Z,12.97
2023-05-19T23:00:21.006Z,12.94
2023-05-19T23:08:46.835Z,12.93
2023-05-19T23:17:09.900Z,12.87
2023-05-19T23:25:32.997Z,12.87
2023-05-19T23:33:56.077Z,12.88
2023-05-19T23:42:19.084Z,12.86
2023-05-19T23:50:42.060Z,12.85
2023-05-19T23:59:04.968Z,12.82
